sensor_id;sensor_type;location;lat;lon;timestamp;P1;durP1;ratioP1;P2;durP2;ratioP2
50350;SDS011;36250;48.740;22.174;2022-11-11T00:01:03;42.75;;;24.48;;
50350;SDS011;36250;48.740;22.174;2022-11-11T00:03:34;42.00;;;25.38;;
50350;SDS011;36250;48.740;22.174;2022-11-11T00:06:00;42.28;;;24.52;;
50350;SDS011;36250;48.740;22.174;2022-11-11T00:08:28;47.60;;;28.85;;
50350;SDS011;36250;48.740;22.174;2022-11-11T00:11:04;46.17;;;28.08;;
50350;SDS011;36250;48.740;22.174;2022-11-11T00:13:31;347.98;;;252.30;;
50350;SDS011;36250;48.740;22.174;2022-11-11T00:18:37;49.50;;;27.92;;
50350;SDS011;36250;48.740;22.174;2022-11-11T00:21:22;60.03;;;35.95;;
50350;SDS011;36250;48.740;22.174;2022-11-11T00:24:24;54.22;;;32.05;;
50350;SDS011;36250;48.740;22.174;2022-11-11T00:27:09;44.92;;;28.17;;
50350;SDS011;36250;48.740;22.174;2022-11-11T00:29:36;45.30;;;28.20;;
50350;SDS011;36250;48.740;22.174;2022-11-11T00:32:02;47.25;;;27.88;;
50350;SDS011;36250;48.740;22.174;2022-11-11T00:34:47;45.55;;;27.38;;
50350;SDS011;36250;48.740;22.174;2022-11-11T00:37:31;44.67;;;28.88;;
50350;SDS011;36250;48.740;22.174;2022-11-11T00:39:57;72.00;;;39.92;;
50350;SDS011;36250;48.740;22.174;2022-11-11T00:42:22;57.88;;;33.28;;
50350;SDS011;36250;48.740;22.174;2022-11-11T00:44:48;50.85;;;29.02;;
50350;SDS011;36250;48.740;22.174;2022-11-11T00:47:13;44.42;;;25.38;;
50350;SDS011;36250;48.740;22.174;2022-11-11T00:49:57;37.13;;;21.60;;
50350;SDS011;36250;48.740;22.174;2022-11-11T00:52:43;37.20;;;22.40;;
50350;SDS011;36250;48.740;22.174;2022-11-11T00:55:10;37.63;;;21.98;;
50350;SDS011;36250;48.740;22.174;2022-11-11T00:57:36;32.47;;;20.58;;
50350;SDS011;36250;48.740;22.174;2022-11-11T01:00:01;33.03;;;20.08;;
50350;SDS011;36250;48.740;22.174;2022-11-11T01:02:27;31.27;;;18.77;;
50350;SDS011;36250;48.740;22.174;2022-11-11T01:04:52;29.75;;;18.85;;
50350;SDS011;36250;48.740;22.174;2022-11-11T01:07:17;32.38;;;19.55;;
50350;SDS011;36250;48.740;22.174;2022-11-11T01:09:43;32.92;;;18.48;;
50350;SDS011;36250;48.740;22.174;2022-11-11T01:12:08;31.95;;;18.10;;
50350;SDS011;36250;48.740;22.174;2022-11-11T01:14:33;30.52;;;17.73;;
50350;SDS011;36250;48.740;22.174;2022-11-11T01:16:59;26.92;;;17.45;;
50350;SDS011;36250;48.740;22.174;2022-11-11T01:19:24;31.70;;;18.27;;
50350;SDS011;36250;48.740;22.174;2022-11-11T01:21:49;34.88;;;21.50;;
50350;SDS011;36250;48.740;22.174;2022-11-11T01:24:15;55.53;;;35.80;;
50350;SDS011;36250;48.740;22.174;2022-11-11T01:26:40;36.72;;;23.27;;
50350;SDS011;36250;48.740;22.174;2022-11-11T01:29:05;36.25;;;20.23;;
50350;SDS011;36250;48.740;22.174;2022-11-11T01:31:31;38.75;;;23.23;;
50350;SDS011;36250;48.740;22.174;2022-11-11T01:33:56;34.67;;;21.13;;
50350;SDS011;36250;48.740;22.174;2022-11-11T01:36:22;37.08;;;21.95;;
50350;SDS011;36250;48.740;22.174;2022-11-11T01:38:50;38.30;;;21.55;;
50350;SDS011;36250;48.740;22.174;2022-11-11T01:41:22;38.58;;;22.80;;
50350;SDS011;36250;48.740;22.174;2022-11-11T01:43:59;35.55;;;22.42;;
50350;SDS011;36250;48.740;22.174;2022-11-11T01:48:59;35.05;;;22.13;;
50350;SDS011;36250;48.740;22.174;2022-11-11T01:51:46;32.88;;;19.90;;
50350;SDS011;36250;48.740;22.174;2022-11-11T01:54:17;33.80;;;18.90;;
50350;SDS011;36250;48.740;22.174;2022-11-11T01:56:58;36.38;;;19.92;;
50350;SDS011;36250;48.740;22.174;2022-11-11T01:59:35;31.05;;;20.65;;
50350;SDS011;36250;48.740;22.174;2022-11-11T02:02:08;40.80;;;21.23;;
50350;SDS011;36250;48.740;22.174;2022-11-11T02:04:41;35.53;;;20.83;;
50350;SDS011;36250;48.740;22.174;2022-11-11T02:07:25;31.25;;;19.70;;
50350;SDS011;36250;48.740;22.174;2022-11-11T02:09:51;32.75;;;20.48;;
50350;SDS011;36250;48.740;22.174;2022-11-11T02:12:17;35.95;;;21.25;;
50350;SDS011;36250;48.740;22.174;2022-11-11T02:15:02;32.22;;;20.80;;
50350;SDS011;36250;48.740;22.174;2022-11-11T02:17:29;34.63;;;20.60;;
50350;SDS011;36250;48.740;22.174;2022-11-11T02:19:59;36.05;;;20.13;;
50350;SDS011;36250;48.740;22.174;2022-11-11T02:25:16;32.47;;;20.10;;
50350;SDS011;36250;48.740;22.174;2022-11-11T02:27:45;33.95;;;18.90;;
50350;SDS011;36250;48.740;22.174;2022-11-11T02:30:14;36.25;;;21.20;;
50350;SDS011;36250;48.740;22.174;2022-11-11T02:32:44;36.10;;;20.33;;
50350;SDS011;36250;48.740;22.174;2022-11-11T02:35:21;31.80;;;19.20;;
50350;SDS011;36250;48.740;22.174;2022-11-11T02:38:08;34.55;;;21.13;;
50350;SDS011;36250;48.740;22.174;2022-11-11T02:40:38;32.22;;;20.02;;
50350;SDS011;36250;48.740;22.174;2022-11-11T02:43:26;30.50;;;20.15;;
50350;SDS011;36250;48.740;22.174;2022-11-11T02:45:52;36.10;;;20.88;;
50350;SDS011;36250;48.740;22.174;2022-11-11T02:48:18;32.58;;;20.25;;
50350;SDS011;36250;48.740;22.174;2022-11-11T02:50:43;33.42;;;19.88;;
50350;SDS011;36250;48.740;22.174;2022-11-11T02:53:09;35.83;;;20.38;;
50350;SDS011;36250;48.740;22.174;2022-11-11T02:55:34;29.92;;;18.27;;
50350;SDS011;36250;48.740;22.174;2022-11-11T02:57:59;27.40;;;19.15;;
50350;SDS011;36250;48.740;22.174;2022-11-11T03:00:25;35.72;;;20.42;;
50350;SDS011;36250;48.740;22.174;2022-11-11T03:02:50;36.33;;;21.73;;
50350;SDS011;36250;48.740;22.174;2022-11-11T03:05:16;33.55;;;20.52;;
50350;SDS011;36250;48.740;22.174;2022-11-11T03:07:41;31.13;;;19.60;;
50350;SDS011;36250;48.740;22.174;2022-11-11T03:10:07;36.47;;;20.55;;
50350;SDS011;36250;48.740;22.174;2022-11-11T03:12:32;31.42;;;19.92;;
50350;SDS011;36250;48.740;22.174;2022-11-11T03:14:57;32.03;;;19.20;;
50350;SDS011;36250;48.740;22.174;2022-11-11T03:17:23;29.52;;;19.25;;
50350;SDS011;36250;48.740;22.174;2022-11-11T03:20:07;30.67;;;19.33;;
50350;SDS011;36250;48.740;22.174;2022-11-11T03:23:12;35.33;;;20.63;;
50350;SDS011;36250;48.740;22.174;2022-11-11T03:25:40;36.90;;;21.42;;
50350;SDS011;36250;48.740;22.174;2022-11-11T03:28:10;35.13;;;21.08;;
50350;SDS011;36250;48.740;22.174;2022-11-11T03:30:36;31.33;;;19.10;;
50350;SDS011;36250;48.740;22.174;2022-11-11T03:33:02;35.17;;;20.05;;
50350;SDS011;36250;48.740;22.174;2022-11-11T03:35:28;37.53;;;22.48;;
50350;SDS011;36250;48.740;22.174;2022-11-11T03:37:54;37.65;;;21.52;;
50350;SDS011;36250;48.740;22.174;2022-11-11T03:40:38;32.42;;;22.13;;
50350;SDS011;36250;48.740;22.174;2022-11-11T03:43:03;39.05;;;23.58;;
50350;SDS011;36250;48.740;22.174;2022-11-11T03:45:29;39.67;;;24.75;;
50350;SDS011;36250;48.740;22.174;2022-11-11T03:47:55;38.35;;;23.88;;
50350;SDS011;36250;48.740;22.174;2022-11-11T03:50:20;52.38;;;26.63;;
50350;SDS011;36250;48.740;22.174;2022-11-11T03:52:46;45.45;;;25.90;;
50350;SDS011;36250;48.740;22.174;2022-11-11T03:55:11;43.58;;;26.63;;
50350;SDS011;36250;48.740;22.174;2022-11-11T03:57:39;82.65;;;39.45;;
50350;SDS011;36250;48.740;22.174;2022-11-11T04:00:05;49.60;;;26.42;;
50350;SDS011;36250;48.740;22.174;2022-11-11T04:02:31;60.95;;;32.95;;
50350;SDS011;36250;48.740;22.174;2022-11-11T04:05:15;55.28;;;28.95;;
50350;SDS011;36250;48.740;22.174;2022-11-11T04:07:59;154.75;;;69.55;;
50350;SDS011;36250;48.740;22.174;2022-11-11T04:10:43;146.73;;;62.83;;
50350;SDS011;36250;48.740;22.174;2022-11-11T04:13:08;120.50;;;55.40;;
50350;SDS011;36250;48.740;22.174;2022-11-11T04:15:52;101.10;;;53.35;;
50350;SDS011;36250;48.740;22.174;2022-11-11T04:18:30;87.05;;;48.30;;
50350;SDS011;36250;48.740;22.174;2022-11-11T04:21:14;80.72;;;45.92;;
50350;SDS011;36250;48.740;22.174;2022-11-11T04:23:58;62.28;;;35.95;;
50350;SDS011;36250;48.740;22.174;2022-11-11T04:26:23;56.08;;;32.22;;
50350;SDS011;36250;48.740;22.174;2022-11-11T04:28:48;68.88;;;39.13;;
50350;SDS011;36250;48.740;22.174;2022-11-11T04:31:32;65.90;;;39.65;;
50350;SDS011;36250;48.740;22.174;2022-11-11T04:33:58;63.88;;;38.28;;
50350;SDS011;36250;48.740;22.174;2022-11-11T04:36:23;74.30;;;38.80;;
50350;SDS011;36250;48.740;22.174;2022-11-11T04:38:48;56.42;;;34.25;;
50350;SDS011;36250;48.740;22.174;2022-11-11T04:41:32;70.20;;;37.10;;
50350;SDS011;36250;48.740;22.174;2022-11-11T04:43:58;55.15;;;31.70;;
50350;SDS011;36250;48.740;22.174;2022-11-11T04:46:42;57.42;;;32.38;;
50350;SDS011;36250;48.740;22.174;2022-11-11T04:49:08;55.83;;;32.72;;
50350;SDS011;36250;48.740;22.174;2022-11-11T04:51:33;51.88;;;31.17;;
50350;SDS011;36250;48.740;22.174;2022-11-11T04:54:17;49.50;;;29.35;;
50350;SDS011;36250;48.740;22.174;2022-11-11T04:56:42;69.40;;;36.55;;
50350;SDS011;36250;48.740;22.174;2022-11-11T04:59:18;66.40;;;34.00;;
50350;SDS011;36250;48.740;22.174;2022-11-11T05:01:44;61.38;;;32.15;;
50350;SDS011;36250;48.740;22.174;2022-11-11T05:04:29;49.88;;;29.27;;
50350;SDS011;36250;48.740;22.174;2022-11-11T05:06:54;43.05;;;27.25;;
50350;SDS011;36250;48.740;22.174;2022-11-11T05:09:38;36.78;;;22.90;;
50350;SDS011;36250;48.740;22.174;2022-11-11T05:12:03;41.35;;;23.55;;
50350;SDS011;36250;48.740;22.174;2022-11-11T05:14:29;36.97;;;21.45;;
50350;SDS011;36250;48.740;22.174;2022-11-11T05:17:12;37.10;;;21.60;;
50350;SDS011;36250;48.740;22.174;2022-11-11T05:19:56;39.15;;;23.45;;
50350;SDS011;36250;48.740;22.174;2022-11-11T05:22:41;36.85;;;22.27;;
50350;SDS011;36250;48.740;22.174;2022-11-11T05:25:07;50.88;;;32.35;;
50350;SDS011;36250;48.740;22.174;2022-11-11T05:27:53;44.47;;;32.08;;
50350;SDS011;36250;48.740;22.174;2022-11-11T05:30:20;44.20;;;24.48;;
50350;SDS011;36250;48.740;22.174;2022-11-11T05:32:46;32.10;;;20.33;;
50350;SDS011;36250;48.740;22.174;2022-11-11T05:35:12;39.65;;;19.83;;
50350;SDS011;36250;48.740;22.174;2022-11-11T05:37:38;38.33;;;20.42;;
50350;SDS011;36250;48.740;22.174;2022-11-11T05:40:04;30.48;;;18.95;;
50350;SDS011;36250;48.740;22.174;2022-11-11T05:42:32;25.50;;;16.92;;
50350;SDS011;36250;48.740;22.174;2022-11-11T05:44:57;28.40;;;18.25;;
50350;SDS011;36250;48.740;22.174;2022-11-11T05:47:22;34.42;;;17.10;;
50350;SDS011;36250;48.740;22.174;2022-11-11T05:49:48;30.98;;;19.67;;
50350;SDS011;36250;48.740;22.174;2022-11-11T05:52:14;36.00;;;24.23;;
50350;SDS011;36250;48.740;22.174;2022-11-11T05:54:43;30.40;;;19.63;;
50350;SDS011;36250;48.740;22.174;2022-11-11T05:57:09;28.73;;;18.35;;
50350;SDS011;36250;48.740;22.174;2022-11-11T05:59:34;30.95;;;17.73;;
50350;SDS011;36250;48.740;22.174;2022-11-11T06:02:00;33.47;;;18.92;;
50350;SDS011;36250;48.740;22.174;2022-11-11T06:04:25;28.92;;;17.60;;
50350;SDS011;36250;48.740;22.174;2022-11-11T06:06:51;30.33;;;18.88;;
50350;SDS011;36250;48.740;22.174;2022-11-11T06:09:17;40.70;;;21.80;;
50350;SDS011;36250;48.740;22.174;2022-11-11T06:11:42;35.78;;;20.55;;
50350;SDS011;36250;48.740;22.174;2022-11-11T06:14:08;29.90;;;17.40;;
50350;SDS011;36250;48.740;22.174;2022-11-11T06:16:33;38.72;;;22.75;;
50350;SDS011;36250;48.740;22.174;2022-11-11T06:18:58;47.75;;;36.50;;
50350;SDS011;36250;48.740;22.174;2022-11-11T06:21:24;64.00;;;43.00;;
50350;SDS011;36250;48.740;22.174;2022-11-11T06:23:50;66.18;;;38.67;;
50350;SDS011;36250;48.740;22.174;2022-11-11T06:26:16;55.20;;;34.10;;
50350;SDS011;36250;48.740;22.174;2022-11-11T06:28:45;53.40;;;31.38;;
50350;SDS011;36250;48.740;22.174;2022-11-11T06:31:16;51.30;;;32.67;;
50350;SDS011;36250;48.740;22.174;2022-11-11T06:33:43;48.17;;;29.75;;
50350;SDS011;36250;48.740;22.174;2022-11-11T06:36:09;59.90;;;36.08;;
50350;SDS011;36250;48.740;22.174;2022-11-11T06:38:37;66.03;;;38.20;;
50350;SDS011;36250;48.740;22.174;2022-11-11T06:41:03;60.00;;;37.40;;
50350;SDS011;36250;48.740;22.174;2022-11-11T06:43:28;56.88;;;30.23;;
50350;SDS011;36250;48.740;22.174;2022-11-11T06:45:54;52.55;;;32.13;;
50350;SDS011;36250;48.740;22.174;2022-11-11T06:48:20;41.17;;;27.92;;
50350;SDS011;36250;48.740;22.174;2022-11-11T06:50:46;36.33;;;23.30;;
50350;SDS011;36250;48.740;22.174;2022-11-11T06:53:12;35.88;;;22.38;;
50350;SDS011;36250;48.740;22.174;2022-11-11T06:55:39;35.38;;;22.63;;
50350;SDS011;36250;48.740;22.174;2022-11-11T06:58:05;33.10;;;18.48;;
50350;SDS011;36250;48.740;22.174;2022-11-11T07:00:35;21.50;;;16.10;;
50350;SDS011;36250;48.740;22.174;2022-11-11T07:03:02;20.80;;;14.60;;
50350;SDS011;36250;48.740;22.174;2022-11-11T07:05:28;27.77;;;18.63;;
50350;SDS011;36250;48.740;22.174;2022-11-11T07:07:54;31.00;;;17.85;;
50350;SDS011;36250;48.740;22.174;2022-11-11T07:10:19;37.92;;;23.92;;
50350;SDS011;36250;48.740;22.174;2022-11-11T07:12:45;34.22;;;21.65;;
50350;SDS011;36250;48.740;22.174;2022-11-11T07:15:10;36.25;;;23.92;;
50350;SDS011;36250;48.740;22.174;2022-11-11T07:17:36;29.65;;;20.02;;
50350;SDS011;36250;48.740;22.174;2022-11-11T07:20:01;29.27;;;16.38;;
50350;SDS011;36250;48.740;22.174;2022-11-11T07:22:27;28.85;;;18.90;;
50350;SDS011;36250;48.740;22.174;2022-11-11T07:24:53;34.47;;;23.88;;
50350;SDS011;36250;48.740;22.174;2022-11-11T07:27:18;39.13;;;25.88;;
50350;SDS011;36250;48.740;22.174;2022-11-11T07:29:43;33.40;;;21.08;;
50350;SDS011;36250;48.740;22.174;2022-11-11T07:32:09;29.90;;;18.58;;
50350;SDS011;36250;48.740;22.174;2022-11-11T07:34:34;31.55;;;18.85;;
50350;SDS011;36250;48.740;22.174;2022-11-11T07:36:59;30.42;;;16.83;;
50350;SDS011;36250;48.740;22.174;2022-11-11T07:39:25;23.58;;;15.48;;
50350;SDS011;36250;48.740;22.174;2022-11-11T07:41:50;25.88;;;16.38;;
50350;SDS011;36250;48.740;22.174;2022-11-11T07:44:15;22.92;;;15.32;;
50350;SDS011;36250;48.740;22.174;2022-11-11T07:46:41;21.25;;;15.40;;
50350;SDS011;36250;48.740;22.174;2022-11-11T07:49:06;26.88;;;16.73;;
50350;SDS011;36250;48.740;22.174;2022-11-11T07:51:32;22.75;;;15.57;;
50350;SDS011;36250;48.740;22.174;2022-11-11T07:53:57;31.92;;;17.80;;
50350;SDS011;36250;48.740;22.174;2022-11-11T07:56:22;60.55;;;43.65;;
50350;SDS011;36250;48.740;22.174;2022-11-11T07:58:48;24.27;;;16.85;;
50350;SDS011;36250;48.740;22.174;2022-11-11T08:01:13;55.22;;;35.63;;
50350;SDS011;36250;48.740;22.174;2022-11-11T08:03:38;33.78;;;18.65;;
50350;SDS011;36250;48.740;22.174;2022-11-11T08:06:14;29.85;;;20.10;;
50350;SDS011;36250;48.740;22.174;2022-11-11T08:08:41;25.83;;;18.85;;
50350;SDS011;36250;48.740;22.174;2022-11-11T08:11:06;31.95;;;20.65;;
50350;SDS011;36250;48.740;22.174;2022-11-11T08:13:31;25.38;;;15.18;;
50350;SDS011;36250;48.740;22.174;2022-11-11T08:16:06;25.50;;;16.23;;
50350;SDS011;36250;48.740;22.174;2022-11-11T08:18:33;46.80;;;31.60;;
50350;SDS011;36250;48.740;22.174;2022-11-11T08:20:59;33.92;;;22.00;;
50350;SDS011;36250;48.740;22.174;2022-11-11T08:23:25;24.08;;;14.85;;
50350;SDS011;36250;48.740;22.174;2022-11-11T08:25:59;49.45;;;32.60;;
50350;SDS011;36250;48.740;22.174;2022-11-11T08:28:30;49.45;;;31.10;;
50350;SDS011;36250;48.740;22.174;2022-11-11T08:30:57;25.38;;;13.25;;
50350;SDS011;36250;48.740;22.174;2022-11-11T08:33:23;26.17;;;15.02;;
50350;SDS011;36250;48.740;22.174;2022-11-11T08:35:49;28.73;;;12.77;;
50350;SDS011;36250;48.740;22.174;2022-11-11T08:38:14;20.35;;;13.65;;
50350;SDS011;36250;48.740;22.174;2022-11-11T08:40:40;25.60;;;15.70;;
50350;SDS011;36250;48.740;22.174;2022-11-11T08:43:05;20.55;;;13.43;;
50350;SDS011;36250;48.740;22.174;2022-11-11T08:45:31;24.75;;;16.70;;
50350;SDS011;36250;48.740;22.174;2022-11-11T08:47:56;54.58;;;34.00;;
50350;SDS011;36250;48.740;22.174;2022-11-11T08:50:22;22.52;;;13.40;;
50350;SDS011;36250;48.740;22.174;2022-11-11T08:52:47;76.38;;;45.45;;
50350;SDS011;36250;48.740;22.174;2022-11-11T08:55:14;30.55;;;14.80;;
50350;SDS011;36250;48.740;22.174;2022-11-11T08:57:39;45.13;;;26.13;;
50350;SDS011;36250;48.740;22.174;2022-11-11T09:00:05;28.20;;;15.93;;
50350;SDS011;36250;48.740;22.174;2022-11-11T09:02:31;78.45;;;42.65;;
50350;SDS011;36250;48.740;22.174;2022-11-11T09:04:57;52.97;;;29.05;;
50350;SDS011;36250;48.740;22.174;2022-11-11T09:07:22;22.70;;;15.60;;
50350;SDS011;36250;48.740;22.174;2022-11-11T09:09:48;68.70;;;41.00;;
50350;SDS011;36250;48.740;22.174;2022-11-11T09:12:13;52.03;;;31.38;;
50350;SDS011;36250;48.740;22.174;2022-11-11T09:14:38;38.42;;;23.85;;
50350;SDS011;36250;48.740;22.174;2022-11-11T09:17:04;52.78;;;27.33;;
50350;SDS011;36250;48.740;22.174;2022-11-11T09:19:30;69.65;;;34.40;;
50350;SDS011;36250;48.740;22.174;2022-11-11T09:21:56;33.28;;;19.33;;
50350;SDS011;36250;48.740;22.174;2022-11-11T09:24:21;25.63;;;17.00;;
50350;SDS011;36250;48.740;22.174;2022-11-11T09:26:47;23.73;;;15.57;;
50350;SDS011;36250;48.740;22.174;2022-11-11T09:29:13;22.67;;;16.65;;
50350;SDS011;36250;48.740;22.174;2022-11-11T09:31:39;24.35;;;16.38;;
50350;SDS011;36250;48.740;22.174;2022-11-11T09:34:04;35.58;;;24.30;;
50350;SDS011;36250;48.740;22.174;2022-11-11T09:36:30;31.75;;;15.88;;
50350;SDS011;36250;48.740;22.174;2022-11-11T09:38:56;23.85;;;15.73;;
50350;SDS011;36250;48.740;22.174;2022-11-11T09:44:37;24.67;;;16.05;;
50350;SDS011;36250;48.740;22.174;2022-11-11T09:47:25;22.75;;;15.43;;
50350;SDS011;36250;48.740;22.174;2022-11-11T09:50:07;100.93;;;62.38;;
50350;SDS011;36250;48.740;22.174;2022-11-11T09:52:42;52.72;;;32.40;;
50350;SDS011;36250;48.740;22.174;2022-11-11T09:55:17;27.83;;;17.75;;
50350;SDS011;36250;48.740;22.174;2022-11-11T09:57:45;56.00;;;35.92;;
50350;SDS011;36250;48.740;22.174;2022-11-11T10:00:16;30.92;;;19.23;;
50350;SDS011;36250;48.740;22.174;2022-11-11T10:02:52;18.52;;;10.57;;
50350;SDS011;36250;48.740;22.174;2022-11-11T10:05:23;42.22;;;20.80;;
50350;SDS011;36250;48.740;22.174;2022-11-11T10:08:21;27.00;;;14.73;;
50350;SDS011;36250;48.740;22.174;2022-11-11T10:10:51;27.55;;;16.90;;
50350;SDS011;36250;48.740;22.174;2022-11-11T10:21:44;33.15;;;22.90;;
50350;SDS011;36250;48.740;22.174;2022-11-11T10:24:16;34.55;;;19.75;;
50350;SDS011;36250;48.740;22.174;2022-11-11T10:26:58;22.65;;;14.27;;
50350;SDS011;36250;48.740;22.174;2022-11-11T10:29:29;27.55;;;15.80;;
50350;SDS011;36250;48.740;22.174;2022-11-11T10:32:16;25.25;;;16.33;;
50350;SDS011;36250;48.740;22.174;2022-11-11T10:34:44;22.92;;;15.07;;
50350;SDS011;36250;48.740;22.174;2022-11-11T10:37:17;26.70;;;14.93;;
50350;SDS011;36250;48.740;22.174;2022-11-11T10:42:36;26.25;;;15.40;;
50350;SDS011;36250;48.740;22.174;2022-11-11T10:45:01;26.50;;;15.90;;
50350;SDS011;36250;48.740;22.174;2022-11-11T10:50:31;26.40;;;15.93;;
50350;SDS011;36250;48.740;22.174;2022-11-11T10:58:51;25.52;;;14.80;;
50350;SDS011;36250;48.740;22.174;2022-11-11T11:01:42;25.08;;;14.60;;
50350;SDS011;36250;48.740;22.174;2022-11-11T11:04:18;27.20;;;16.20;;
50350;SDS011;36250;48.740;22.174;2022-11-11T11:06:46;31.63;;;18.08;;
50350;SDS011;36250;48.740;22.174;2022-11-11T11:09:26;19.83;;;13.20;;
50350;SDS011;36250;48.740;22.174;2022-11-11T11:12:19;25.77;;;12.10;;
50350;SDS011;36250;48.740;22.174;2022-11-11T11:14:50;21.05;;;12.27;;
50350;SDS011;36250;48.740;22.174;2022-11-11T11:17:21;17.02;;;11.65;;
50350;SDS011;36250;48.740;22.174;2022-11-11T11:20:26;15.20;;;10.23;;
50350;SDS011;36250;48.740;22.174;2022-11-11T11:22:48;16.75;;;9.73;;
50350;SDS011;36250;48.740;22.174;2022-11-11T11:25:20;17.35;;;9.73;;
50350;SDS011;36250;48.740;22.174;2022-11-11T11:27:46;20.65;;;10.65;;
50350;SDS011;36250;48.740;22.174;2022-11-11T11:30:18;17.67;;;11.15;;
50350;SDS011;36250;48.740;22.174;2022-11-11T11:32:56;18.02;;;8.98;;
50350;SDS011;36250;48.740;22.174;2022-11-11T11:35:40;10.80;;;6.30;;
50350;SDS011;36250;48.740;22.174;2022-11-11T11:38:07;7.25;;;4.85;;
50350;SDS011;36250;48.740;22.174;2022-11-11T11:43:43;14.68;;;4.97;;
50350;SDS011;36250;48.740;22.174;2022-11-11T11:51:50;8.93;;;5.43;;
50350;SDS011;36250;48.740;22.174;2022-11-11T12:00:03;8.60;;;4.00;;
50350;SDS011;36250;48.740;22.174;2022-11-11T12:05:21;12.20;;;6.35;;
50350;SDS011;36250;48.740;22.174;2022-11-11T12:08:52;19.92;;;8.05;;
50350;SDS011;36250;48.740;22.174;2022-11-11T12:11:05;10.50;;;4.80;;
50350;SDS011;36250;48.740;22.174;2022-11-11T12:13:45;22.52;;;10.20;;
50350;SDS011;36250;48.740;22.174;2022-11-11T12:16:40;53.65;;;25.98;;
50350;SDS011;36250;48.740;22.174;2022-11-11T12:20:13;12.52;;;4.60;;
50350;SDS011;36250;48.740;22.174;2022-11-11T12:22:28;11.45;;;5.78;;
50350;SDS011;36250;48.740;22.174;2022-11-11T12:30:47;11.38;;;4.72;;
50350;SDS011;36250;48.740;22.174;2022-11-11T12:36:35;9.50;;;4.55;;
50350;SDS011;36250;48.740;22.174;2022-11-11T12:50:37;38.10;;;8.75;;
50350;SDS011;36250;48.740;22.174;2022-11-11T13:07:16;19.77;;;10.57;;
50350;SDS011;36250;48.740;22.174;2022-11-11T13:16:10;46.85;;;25.58;;
50350;SDS011;36250;48.740;22.174;2022-11-11T13:19:37;32.22;;;19.58;;
50350;SDS011;36250;48.740;22.174;2022-11-11T13:24:17;161.52;;;87.60;;
50350;SDS011;36250;48.740;22.174;2022-11-11T13:26:46;50.33;;;32.17;;
50350;SDS011;36250;48.740;22.174;2022-11-11T13:32:21;87.43;;;48.92;;
50350;SDS011;36250;48.740;22.174;2022-11-11T13:34:52;158.90;;;72.85;;
50350;SDS011;36250;48.740;22.174;2022-11-11T13:37:23;32.47;;;18.58;;
50350;SDS011;36250;48.740;22.174;2022-11-11T13:39:52;25.85;;;17.25;;
50350;SDS011;36250;48.740;22.174;2022-11-11T13:42:36;37.38;;;33.70;;
50350;SDS011;36250;48.740;22.174;2022-11-11T13:45:04;33.13;;;19.83;;
50350;SDS011;36250;48.740;22.174;2022-11-11T13:47:43;19.52;;;13.20;;
50350;SDS011;36250;48.740;22.174;2022-11-11T13:50:24;19.13;;;8.13;;
50350;SDS011;36250;48.740;22.174;2022-11-11T13:53:03;12.93;;;7.25;;
50350;SDS011;36250;48.740;22.174;2022-11-11T13:55:38;17.25;;;9.30;;
50350;SDS011;36250;48.740;22.174;2022-11-11T13:58:06;24.70;;;15.82;;
50350;SDS011;36250;48.740;22.174;2022-11-11T14:00:46;59.67;;;34.53;;
50350;SDS011;36250;48.740;22.174;2022-11-11T14:06:01;33.95;;;18.35;;
50350;SDS011;36250;48.740;22.174;2022-11-11T14:13:48;27.00;;;14.32;;
50350;SDS011;36250;48.740;22.174;2022-11-11T14:16:58;33.20;;;16.95;;
50350;SDS011;36250;48.740;22.174;2022-11-11T14:21:52;23.77;;;15.82;;
50350;SDS011;36250;48.740;22.174;2022-11-11T14:24:33;30.23;;;16.83;;
50350;SDS011;36250;48.740;22.174;2022-11-11T14:29:33;23.80;;;13.40;;
50350;SDS011;36250;48.740;22.174;2022-11-11T14:37:30;27.15;;;14.15;;
50350;SDS011;36250;48.740;22.174;2022-11-11T14:40:00;23.05;;;14.02;;
50350;SDS011;36250;48.740;22.174;2022-11-11T14:45:00;69.70;;;38.78;;
50350;SDS011;36250;48.740;22.174;2022-11-11T14:50:52;298.52;;;131.43;;
50350;SDS011;36250;48.740;22.174;2022-11-11T14:52:53;391.13;;;182.25;;
50350;SDS011;36250;48.740;22.174;2022-11-11T14:55:26;461.92;;;228.60;;
50350;SDS011;36250;48.740;22.174;2022-11-11T15:00:22;231.85;;;116.63;;
50350;SDS011;36250;48.740;22.174;2022-11-11T15:02:53;160.23;;;84.70;;
50350;SDS011;36250;48.740;22.174;2022-11-11T15:05:28;148.18;;;80.18;;
50350;SDS011;36250;48.740;22.174;2022-11-11T15:08:02;166.63;;;84.78;;
50350;SDS011;36250;48.740;22.174;2022-11-11T15:11:09;140.27;;;71.45;;
50350;SDS011;36250;48.740;22.174;2022-11-11T15:13:47;137.65;;;74.93;;
50350;SDS011;36250;48.740;22.174;2022-11-11T15:30:56;157.85;;;86.72;;
50350;SDS011;36250;48.740;22.174;2022-11-11T15:39:03;109.78;;;60.08;;
50350;SDS011;36250;48.740;22.174;2022-11-11T15:41:38;94.78;;;53.13;;
50350;SDS011;36250;48.740;22.174;2022-11-11T15:44:12;98.28;;;51.78;;
50350;SDS011;36250;48.740;22.174;2022-11-11T15:46:43;97.80;;;54.58;;
50350;SDS011;36250;48.740;22.174;2022-11-11T15:49:51;85.00;;;48.47;;
50350;SDS011;36250;48.740;22.174;2022-11-11T15:54:54;44.47;;;25.58;;
50350;SDS011;36250;48.740;22.174;2022-11-11T15:59:53;41.35;;;25.23;;
50350;SDS011;36250;48.740;22.174;2022-11-11T16:02:20;53.25;;;27.52;;
50350;SDS011;36250;48.740;22.174;2022-11-11T16:04:57;93.72;;;58.67;;
50350;SDS011;36250;48.740;22.174;2022-11-11T16:07:33;90.45;;;58.83;;
50350;SDS011;36250;48.740;22.174;2022-11-11T16:10:43;109.85;;;71.22;;
50350;SDS011;36250;48.740;22.174;2022-11-11T16:15:42;93.15;;;55.38;;
50350;SDS011;36250;48.740;22.174;2022-11-11T16:18:15;133.50;;;74.60;;
50350;SDS011;36250;48.740;22.174;2022-11-11T16:20:47;130.05;;;71.68;;
50350;SDS011;36250;48.740;22.174;2022-11-11T16:23:18;113.00;;;62.75;;
50350;SDS011;36250;48.740;22.174;2022-11-11T16:25:45;118.07;;;65.57;;
50350;SDS011;36250;48.740;22.174;2022-11-11T16:28:11;171.02;;;89.20;;
50350;SDS011;36250;48.740;22.174;2022-11-11T16:30:38;208.40;;;108.75;;
50350;SDS011;36250;48.740;22.174;2022-11-11T16:33:03;151.00;;;80.15;;
50350;SDS011;36250;48.740;22.174;2022-11-11T16:35:36;142.65;;;78.93;;
50350;SDS011;36250;48.740;22.174;2022-11-11T16:38:04;109.57;;;65.95;;
50350;SDS011;36250;48.740;22.174;2022-11-11T16:43:12;59.67;;;35.10;;
50350;SDS011;36250;48.740;22.174;2022-11-11T16:45:44;57.90;;;31.65;;
50350;SDS011;36250;48.740;22.174;2022-11-11T16:48:32;94.22;;;52.63;;
50350;SDS011;36250;48.740;22.174;2022-11-11T16:51:04;84.40;;;49.58;;
50350;SDS011;36250;48.740;22.174;2022-11-11T16:53:33;68.22;;;41.17;;
50350;SDS011;36250;48.740;22.174;2022-11-11T16:56:02;60.67;;;35.65;;
50350;SDS011;36250;48.740;22.174;2022-11-11T16:58:29;58.25;;;31.92;;
50350;SDS011;36250;48.740;22.174;2022-11-11T17:00:59;38.72;;;24.98;;
50350;SDS011;36250;48.740;22.174;2022-11-11T17:03:26;36.40;;;18.45;;